Mechanicsville, Virginia
Current Conditions -  °F | °C
As of 11:54 AM on Wednesday 26 Nov 2014 (Local Time) from KOFP Reporting Station
Light Rain Light Rain  
Wind Chill: 32°   Ceiling: 800
Heat Index: 38°   Visibility: 5mi
Dew Point: 37°   Wind: 8mph
Humidity: 97%   Direction: 10°N
Pressure: 29.92"   Gusts: NA
Location:  37.61°N, 77.38°W
Report Text: KOFP 261654Z AUTO 01007KT 320V050 5SM -RA BR BKN008 BKN047 OVC075 03/03 A2992 RMK AO2 PRESFR SLP132 P0005 T00330028
Loading
Personal Weather Stations






























Interactive Weather Map New forecast layout! Learn more

10-Day Weather Forecast

Advertisements
Track Severe Weather on mobile